sensor_id;sensor_type;location;lat;lon;timestamp;P1;durP1;ratioP1;P2;durP2;ratioP2
67867;SDS011;54672;46.096;14.470;2023-08-21T00:01:01;20.80;;;14.75;;
67867;SDS011;54672;46.096;14.470;2023-08-21T00:03:27;20.83;;;14.20;;
67867;SDS011;54672;46.096;14.470;2023-08-21T00:05:52;21.25;;;14.90;;
67867;SDS011;54672;46.096;14.470;2023-08-21T00:08:17;20.00;;;14.65;;
67867;SDS011;54672;46.096;14.470;2023-08-21T00:10:43;22.13;;;14.93;;
67867;SDS011;54672;46.096;14.470;2023-08-21T00:13:09;23.27;;;15.63;;
67867;SDS011;54672;46.096;14.470;2023-08-21T00:15:34;21.75;;;14.77;;
67867;SDS011;54672;46.096;14.470;2023-08-21T00:18:00;21.95;;;14.70;;
67867;SDS011;54672;46.096;14.470;2023-08-21T00:20:26;20.08;;;14.15;;
67867;SDS011;54672;46.096;14.470;2023-08-21T00:22:51;21.90;;;14.15;;
67867;SDS011;54672;46.096;14.470;2023-08-21T00:25:17;25.70;;;15.80;;
67867;SDS011;54672;46.096;14.470;2023-08-21T00:27:42;22.00;;;14.80;;
67867;SDS011;54672;46.096;14.470;2023-08-21T00:30:08;22.83;;;14.38;;
67867;SDS011;54672;46.096;14.470;2023-08-21T00:32:34;23.38;;;14.75;;
67867;SDS011;54672;46.096;14.470;2023-08-21T00:35:00;20.77;;;14.27;;
67867;SDS011;54672;46.096;14.470;2023-08-21T00:37:25;21.85;;;14.80;;
67867;SDS011;54672;46.096;14.470;2023-08-21T00:39:51;21.52;;;15.25;;
67867;SDS011;54672;46.096;14.470;2023-08-21T00:42:16;22.27;;;15.70;;
67867;SDS011;54672;46.096;14.470;2023-08-21T00:44:42;23.13;;;15.90;;
67867;SDS011;54672;46.096;14.470;2023-08-21T00:47:07;19.38;;;14.40;;
67867;SDS011;54672;46.096;14.470;2023-08-21T00:49:33;20.80;;;15.40;;
67867;SDS011;54672;46.096;14.470;2023-08-21T00:51:58;21.30;;;15.07;;
67867;SDS011;54672;46.096;14.470;2023-08-21T00:54:25;23.80;;;15.60;;
67867;SDS011;54672;46.096;14.470;2023-08-21T00:56:50;24.33;;;16.17;;
67867;SDS011;54672;46.096;14.470;2023-08-21T00:59:17;21.52;;;15.25;;
67867;SDS011;54672;46.096;14.470;2023-08-21T01:01:43;23.33;;;15.73;;
67867;SDS011;54672;46.096;14.470;2023-08-21T01:04:09;22.25;;;15.30;;
67867;SDS011;54672;46.096;14.470;2023-08-21T01:06:35;22.17;;;15.52;;
67867;SDS011;54672;46.096;14.470;2023-08-21T01:14:46;25.80;;;15.15;;
67867;SDS011;54672;46.096;14.470;2023-08-21T01:17:28;22.52;;;16.05;;
67867;SDS011;54672;46.096;14.470;2023-08-21T01:19:54;22.45;;;16.15;;
67867;SDS011;54672;46.096;14.470;2023-08-21T01:22:25;21.15;;;15.45;;
67867;SDS011;54672;46.096;14.470;2023-08-21T01:24:51;22.90;;;14.88;;
67867;SDS011;54672;46.096;14.470;2023-08-21T01:27:17;23.13;;;15.60;;
67867;SDS011;54672;46.096;14.470;2023-08-21T01:29:46;27.70;;;16.90;;
67867;SDS011;54672;46.096;14.470;2023-08-21T01:32:28;23.73;;;16.88;;
67867;SDS011;54672;46.096;14.470;2023-08-21T01:34:59;24.17;;;16.50;;
67867;SDS011;54672;46.096;14.470;2023-08-21T01:37:25;22.90;;;15.88;;
67867;SDS011;54672;46.096;14.470;2023-08-21T01:39:51;23.45;;;16.45;;
67867;SDS011;54672;46.096;14.470;2023-08-21T01:42:17;25.10;;;16.80;;
67867;SDS011;54672;46.096;14.470;2023-08-21T01:44:42;26.33;;;15.75;;
67867;SDS011;54672;46.096;14.470;2023-08-21T01:47:11;26.95;;;16.45;;
67867;SDS011;54672;46.096;14.470;2023-08-21T01:49:36;24.88;;;17.00;;
67867;SDS011;54672;46.096;14.470;2023-08-21T01:52:02;25.13;;;16.20;;
67867;SDS011;54672;46.096;14.470;2023-08-21T01:54:28;23.27;;;15.90;;
67867;SDS011;54672;46.096;14.470;2023-08-21T01:56:53;25.70;;;17.55;;
67867;SDS011;54672;46.096;14.470;2023-08-21T01:59:19;26.23;;;17.15;;
67867;SDS011;54672;46.096;14.470;2023-08-21T02:01:45;27.20;;;17.42;;
67867;SDS011;54672;46.096;14.470;2023-08-21T02:04:10;25.85;;;16.17;;
67867;SDS011;54672;46.096;14.470;2023-08-21T02:06:36;28.52;;;17.13;;
67867;SDS011;54672;46.096;14.470;2023-08-21T02:09:01;26.05;;;16.65;;
67867;SDS011;54672;46.096;14.470;2023-08-21T02:11:27;28.45;;;18.15;;
67867;SDS011;54672;46.096;14.470;2023-08-21T02:13:52;27.67;;;17.40;;
67867;SDS011;54672;46.096;14.470;2023-08-21T02:16:17;26.88;;;17.10;;
67867;SDS011;54672;46.096;14.470;2023-08-21T02:18:43;28.42;;;18.42;;
67867;SDS011;54672;46.096;14.470;2023-08-21T02:21:08;27.73;;;17.92;;
67867;SDS011;54672;46.096;14.470;2023-08-21T02:23:34;27.65;;;18.00;;
67867;SDS011;54672;46.096;14.470;2023-08-21T02:25:59;30.63;;;17.83;;
67867;SDS011;54672;46.096;14.470;2023-08-21T02:28:24;29.15;;;18.83;;
67867;SDS011;54672;46.096;14.470;2023-08-21T02:30:50;28.38;;;18.52;;
67867;SDS011;54672;46.096;14.470;2023-08-21T02:33:15;27.90;;;17.67;;
67867;SDS011;54672;46.096;14.470;2023-08-21T02:35:41;27.13;;;17.40;;
67867;SDS011;54672;46.096;14.470;2023-08-21T02:38:06;29.15;;;18.55;;
67867;SDS011;54672;46.096;14.470;2023-08-21T02:40:32;29.48;;;18.02;;
67867;SDS011;54672;46.096;14.470;2023-08-21T02:42:57;26.15;;;17.58;;
67867;SDS011;54672;46.096;14.470;2023-08-21T02:45:23;29.75;;;18.65;;
67867;SDS011;54672;46.096;14.470;2023-08-21T02:47:48;27.63;;;18.27;;
67867;SDS011;54672;46.096;14.470;2023-08-21T02:50:14;28.88;;;17.75;;
67867;SDS011;54672;46.096;14.470;2023-08-21T02:52:40;27.65;;;18.13;;
67867;SDS011;54672;46.096;14.470;2023-08-21T02:55:05;26.75;;;18.23;;
67867;SDS011;54672;46.096;14.470;2023-08-21T02:57:31;28.25;;;18.92;;
67867;SDS011;54672;46.096;14.470;2023-08-21T02:59:57;26.25;;;17.80;;
67867;SDS011;54672;46.096;14.470;2023-08-21T03:02:22;27.75;;;17.58;;
67867;SDS011;54672;46.096;14.470;2023-08-21T03:04:48;30.35;;;18.20;;
67867;SDS011;54672;46.096;14.470;2023-08-21T03:07:14;30.38;;;18.88;;
67867;SDS011;54672;46.096;14.470;2023-08-21T03:09:40;28.75;;;18.85;;
67867;SDS011;54672;46.096;14.470;2023-08-21T03:12:06;27.70;;;18.85;;
67867;SDS011;54672;46.096;14.470;2023-08-21T03:14:33;27.50;;;18.42;;
67867;SDS011;54672;46.096;14.470;2023-08-21T03:16:59;28.48;;;18.40;;
67867;SDS011;54672;46.096;14.470;2023-08-21T03:19:24;29.95;;;19.20;;
67867;SDS011;54672;46.096;14.470;2023-08-21T03:21:50;31.30;;;18.77;;
67867;SDS011;54672;46.096;14.470;2023-08-21T03:24:16;27.67;;;18.50;;
67867;SDS011;54672;46.096;14.470;2023-08-21T03:26:41;27.67;;;17.52;;
67867;SDS011;54672;46.096;14.470;2023-08-21T03:29:07;27.45;;;18.25;;
67867;SDS011;54672;46.096;14.470;2023-08-21T03:31:32;26.33;;;18.70;;
67867;SDS011;54672;46.096;14.470;2023-08-21T03:33:58;28.75;;;18.75;;
67867;SDS011;54672;46.096;14.470;2023-08-21T03:36:23;29.63;;;18.75;;
67867;SDS011;54672;46.096;14.470;2023-08-21T03:38:56;30.60;;;18.40;;
67867;SDS011;54672;46.096;14.470;2023-08-21T03:41:22;28.98;;;18.63;;
67867;SDS011;54672;46.096;14.470;2023-08-21T03:43:48;28.63;;;17.67;;
67867;SDS011;54672;46.096;14.470;2023-08-21T03:46:13;29.58;;;18.30;;
67867;SDS011;54672;46.096;14.470;2023-08-21T03:48:38;27.77;;;18.58;;
67867;SDS011;54672;46.096;14.470;2023-08-21T03:51:04;34.95;;;19.25;;
67867;SDS011;54672;46.096;14.470;2023-08-21T03:53:29;28.00;;;18.50;;
67867;SDS011;54672;46.096;14.470;2023-08-21T03:55:55;30.65;;;19.08;;
67867;SDS011;54672;46.096;14.470;2023-08-21T03:58:20;30.23;;;18.48;;
67867;SDS011;54672;46.096;14.470;2023-08-21T04:00:46;28.52;;;18.08;;
67867;SDS011;54672;46.096;14.470;2023-08-21T04:03:11;28.90;;;18.50;;
67867;SDS011;54672;46.096;14.470;2023-08-21T04:05:37;30.90;;;18.33;;
67867;SDS011;54672;46.096;14.470;2023-08-21T04:08:02;34.03;;;20.00;;
67867;SDS011;54672;46.096;14.470;2023-08-21T04:10:28;30.52;;;17.92;;
67867;SDS011;54672;46.096;14.470;2023-08-21T04:12:53;27.25;;;17.33;;
67867;SDS011;54672;46.096;14.470;2023-08-21T04:15:19;27.15;;;17.63;;
67867;SDS011;54672;46.096;14.470;2023-08-21T04:17:44;24.42;;;16.10;;
67867;SDS011;54672;46.096;14.470;2023-08-21T04:20:10;27.73;;;17.65;;
67867;SDS011;54672;46.096;14.470;2023-08-21T04:22:35;24.23;;;15.65;;
67867;SDS011;54672;46.096;14.470;2023-08-21T04:25:01;23.83;;;15.77;;
67867;SDS011;54672;46.096;14.470;2023-08-21T04:27:26;25.92;;;16.17;;
67867;SDS011;54672;46.096;14.470;2023-08-21T04:29:52;24.90;;;15.48;;
67867;SDS011;54672;46.096;14.470;2023-08-21T04:32:18;22.77;;;15.38;;
67867;SDS011;54672;46.096;14.470;2023-08-21T04:34:43;24.50;;;14.98;;
67867;SDS011;54672;46.096;14.470;2023-08-21T04:37:09;20.27;;;14.18;;
67867;SDS011;54672;46.096;14.470;2023-08-21T04:39:34;20.05;;;13.85;;
67867;SDS011;54672;46.096;14.470;2023-08-21T04:42:01;19.73;;;13.73;;
67867;SDS011;54672;46.096;14.470;2023-08-21T04:44:27;20.05;;;13.10;;
67867;SDS011;54672;46.096;14.470;2023-08-21T04:46:52;20.25;;;13.18;;
67867;SDS011;54672;46.096;14.470;2023-08-21T04:49:18;24.98;;;14.55;;
67867;SDS011;54672;46.096;14.470;2023-08-21T04:51:43;21.83;;;14.00;;
67867;SDS011;54672;46.096;14.470;2023-08-21T04:54:09;17.65;;;13.02;;
67867;SDS011;54672;46.096;14.470;2023-08-21T04:56:34;17.30;;;12.88;;
67867;SDS011;54672;46.096;14.470;2023-08-21T04:58:59;15.55;;;12.32;;
67867;SDS011;54672;46.096;14.470;2023-08-21T05:01:25;19.08;;;13.18;;
67867;SDS011;54672;46.096;14.470;2023-08-21T05:03:51;20.98;;;14.50;;
67867;SDS011;54672;46.096;14.470;2023-08-21T05:06:16;23.55;;;17.15;;
67867;SDS011;54672;46.096;14.470;2023-08-21T05:08:42;25.50;;;16.40;;
67867;SDS011;54672;46.096;14.470;2023-08-21T05:11:07;21.63;;;14.38;;
67867;SDS011;54672;46.096;14.470;2023-08-21T05:13:32;22.17;;;14.40;;
67867;SDS011;54672;46.096;14.470;2023-08-21T05:15:58;18.95;;;14.00;;
67867;SDS011;54672;46.096;14.470;2023-08-21T05:18:24;21.40;;;14.50;;
67867;SDS011;54672;46.096;14.470;2023-08-21T05:20:51;21.70;;;15.35;;
67867;SDS011;54672;46.096;14.470;2023-08-21T05:23:19;24.02;;;15.70;;
67867;SDS011;54672;46.096;14.470;2023-08-21T05:25:44;21.88;;;14.95;;
67867;SDS011;54672;46.096;14.470;2023-08-21T05:28:10;18.50;;;13.07;;
67867;SDS011;54672;46.096;14.470;2023-08-21T05:30:36;22.38;;;14.05;;
67867;SDS011;54672;46.096;14.470;2023-08-21T05:33:02;20.65;;;14.80;;
67867;SDS011;54672;46.096;14.470;2023-08-21T05:35:28;22.35;;;15.93;;
67867;SDS011;54672;46.096;14.470;2023-08-21T05:37:54;25.42;;;15.77;;
67867;SDS011;54672;46.096;14.470;2023-08-21T05:40:20;21.80;;;14.25;;
67867;SDS011;54672;46.096;14.470;2023-08-21T05:42:45;23.85;;;13.77;;
67867;SDS011;54672;46.096;14.470;2023-08-21T05:45:10;21.63;;;12.57;;
67867;SDS011;54672;46.096;14.470;2023-08-21T05:47:36;22.30;;;12.43;;
67867;SDS011;54672;46.096;14.470;2023-08-21T05:50:01;24.50;;;12.15;;
67867;SDS011;54672;46.096;14.470;2023-08-21T05:52:27;17.35;;;12.60;;
67867;SDS011;54672;46.096;14.470;2023-08-21T05:54:52;19.83;;;12.35;;
67867;SDS011;54672;46.096;14.470;2023-08-21T05:57:18;18.52;;;11.40;;
67867;SDS011;54672;46.096;14.470;2023-08-21T05:59:44;17.38;;;11.52;;
67867;SDS011;54672;46.096;14.470;2023-08-21T06:02:10;17.48;;;11.70;;
67867;SDS011;54672;46.096;14.470;2023-08-21T06:04:37;16.20;;;12.38;;
67867;SDS011;54672;46.096;14.470;2023-08-21T06:07:04;17.83;;;11.23;;
67867;SDS011;54672;46.096;14.470;2023-08-21T06:09:30;20.77;;;12.35;;
67867;SDS011;54672;46.096;14.470;2023-08-21T06:11:56;15.20;;;12.07;;
67867;SDS011;54672;46.096;14.470;2023-08-21T06:14:22;14.43;;;11.80;;
67867;SDS011;54672;46.096;14.470;2023-08-21T06:16:54;16.25;;;12.18;;
67867;SDS011;54672;46.096;14.470;2023-08-21T06:19:24;16.23;;;11.75;;
67867;SDS011;54672;46.096;14.470;2023-08-21T06:21:50;15.93;;;12.50;;
67867;SDS011;54672;46.096;14.470;2023-08-21T06:24:15;16.38;;;12.23;;
67867;SDS011;54672;46.096;14.470;2023-08-21T06:26:41;16.25;;;12.40;;
67867;SDS011;54672;46.096;14.470;2023-08-21T06:29:06;17.40;;;12.43;;
67867;SDS011;54672;46.096;14.470;2023-08-21T06:31:32;15.35;;;11.82;;
67867;SDS011;54672;46.096;14.470;2023-08-21T06:33:57;18.05;;;12.98;;
67867;SDS011;54672;46.096;14.470;2023-08-21T06:36:23;15.68;;;12.52;;
67867;SDS011;54672;46.096;14.470;2023-08-21T06:38:48;17.40;;;13.43;;
67867;SDS011;54672;46.096;14.470;2023-08-21T06:41:14;15.63;;;12.18;;
67867;SDS011;54672;46.096;14.470;2023-08-21T06:43:39;16.17;;;13.10;;
67867;SDS011;54672;46.096;14.470;2023-08-21T06:46:05;14.05;;;12.20;;
67867;SDS011;54672;46.096;14.470;2023-08-21T06:48:30;15.80;;;12.13;;
67867;SDS011;54672;46.096;14.470;2023-08-21T06:50:56;16.88;;;14.75;;
67867;SDS011;54672;46.096;14.470;2023-08-21T06:53:22;18.73;;;13.65;;
67867;SDS011;54672;46.096;14.470;2023-08-21T06:55:47;14.95;;;12.43;;
67867;SDS011;54672;46.096;14.470;2023-08-21T06:58:13;18.08;;;13.70;;
67867;SDS011;54672;46.096;14.470;2023-08-21T07:00:38;18.70;;;13.77;;
67867;SDS011;54672;46.096;14.470;2023-08-21T07:03:04;19.55;;;13.00;;
67867;SDS011;54672;46.096;14.470;2023-08-21T07:05:32;15.65;;;13.05;;
67867;SDS011;54672;46.096;14.470;2023-08-21T07:07:58;14.85;;;13.23;;
67867;SDS011;54672;46.096;14.470;2023-08-21T07:10:24;17.05;;;13.07;;
67867;SDS011;54672;46.096;14.470;2023-08-21T07:12:49;20.20;;;13.80;;
67867;SDS011;54672;46.096;14.470;2023-08-21T07:15:15;17.92;;;13.60;;
67867;SDS011;54672;46.096;14.470;2023-08-21T07:17:40;17.88;;;12.90;;
67867;SDS011;54672;46.096;14.470;2023-08-21T07:20:06;18.40;;;13.95;;
67867;SDS011;54672;46.096;14.470;2023-08-21T07:22:32;17.02;;;13.75;;
67867;SDS011;54672;46.096;14.470;2023-08-21T07:24:58;15.55;;;12.95;;
67867;SDS011;54672;46.096;14.470;2023-08-21T07:27:25;15.50;;;12.48;;
67867;SDS011;54672;46.096;14.470;2023-08-21T07:29:51;17.17;;;12.48;;
67867;SDS011;54672;46.096;14.470;2023-08-21T07:32:16;13.48;;;12.02;;
67867;SDS011;54672;46.096;14.470;2023-08-21T07:34:42;15.80;;;12.15;;
67867;SDS011;54672;46.096;14.470;2023-08-21T07:37:08;18.88;;;12.18;;
67867;SDS011;54672;46.096;14.470;2023-08-21T07:39:34;15.48;;;12.07;;
67867;SDS011;54672;46.096;14.470;2023-08-21T07:41:59;15.93;;;12.00;;
67867;SDS011;54672;46.096;14.470;2023-08-21T07:44:26;19.27;;;12.65;;
67867;SDS011;54672;46.096;14.470;2023-08-21T07:46:52;16.55;;;12.48;;
67867;SDS011;54672;46.096;14.470;2023-08-21T07:49:17;18.90;;;12.45;;
67867;SDS011;54672;46.096;14.470;2023-08-21T07:51:42;18.45;;;12.45;;
67867;SDS011;54672;46.096;14.470;2023-08-21T07:54:08;19.73;;;13.00;;
67867;SDS011;54672;46.096;14.470;2023-08-21T07:56:33;16.70;;;11.85;;
67867;SDS011;54672;46.096;14.470;2023-08-21T07:59:00;17.63;;;12.57;;
67867;SDS011;54672;46.096;14.470;2023-08-21T08:01:27;18.58;;;12.13;;
67867;SDS011;54672;46.096;14.470;2023-08-21T08:03:52;18.20;;;11.82;;
67867;SDS011;54672;46.096;14.470;2023-08-21T08:06:18;20.65;;;12.77;;
67867;SDS011;54672;46.096;14.470;2023-08-21T08:08:43;16.75;;;12.40;;
67867;SDS011;54672;46.096;14.470;2023-08-21T08:11:09;16.75;;;13.15;;
67867;SDS011;54672;46.096;14.470;2023-08-21T08:13:34;17.48;;;12.77;;
67867;SDS011;54672;46.096;14.470;2023-08-21T08:16:00;16.17;;;12.70;;
67867;SDS011;54672;46.096;14.470;2023-08-21T08:18:26;16.75;;;13.07;;
67867;SDS011;54672;46.096;14.470;2023-08-21T08:20:51;17.58;;;13.00;;
67867;SDS011;54672;46.096;14.470;2023-08-21T08:23:18;17.58;;;13.25;;
67867;SDS011;54672;46.096;14.470;2023-08-21T08:25:44;20.17;;;13.65;;
67867;SDS011;54672;46.096;14.470;2023-08-21T08:28:10;16.40;;;12.48;;
67867;SDS011;54672;46.096;14.470;2023-08-21T08:30:35;16.02;;;12.38;;
67867;SDS011;54672;46.096;14.470;2023-08-21T08:33:01;29.15;;;13.25;;
67867;SDS011;54672;46.096;14.470;2023-08-21T08:35:26;17.10;;;12.35;;
67867;SDS011;54672;46.096;14.470;2023-08-21T08:37:52;16.23;;;12.73;;
67867;SDS011;54672;46.096;14.470;2023-08-21T08:40:17;17.40;;;12.45;;
67867;SDS011;54672;46.096;14.470;2023-08-21T08:42:44;16.33;;;12.93;;
67867;SDS011;54672;46.096;14.470;2023-08-21T08:45:10;17.23;;;12.57;;
67867;SDS011;54672;46.096;14.470;2023-08-21T08:47:38;21.05;;;13.82;;
67867;SDS011;54672;46.096;14.470;2023-08-21T08:50:06;19.50;;;13.63;;
67867;SDS011;54672;46.096;14.470;2023-08-21T08:52:36;23.25;;;13.90;;
67867;SDS011;54672;46.096;14.470;2023-08-21T08:55:05;19.73;;;13.18;;
67867;SDS011;54672;46.096;14.470;2023-08-21T08:57:33;17.05;;;12.98;;
67867;SDS011;54672;46.096;14.470;2023-08-21T08:59:59;17.55;;;12.65;;
67867;SDS011;54672;46.096;14.470;2023-08-21T09:02:25;15.38;;;12.65;;
67867;SDS011;54672;46.096;14.470;2023-08-21T09:04:53;18.20;;;12.85;;
67867;SDS011;54672;46.096;14.470;2023-08-21T09:07:19;15.50;;;12.30;;
67867;SDS011;54672;46.096;14.470;2023-08-21T09:09:45;22.40;;;11.48;;
67867;SDS011;54672;46.096;14.470;2023-08-21T09:12:14;16.10;;;11.60;;
67867;SDS011;54672;46.096;14.470;2023-08-21T09:14:40;19.42;;;11.73;;
67867;SDS011;54672;46.096;14.470;2023-08-21T09:17:07;16.65;;;11.20;;
67867;SDS011;54672;46.096;14.470;2023-08-21T09:19:33;18.48;;;11.85;;
67867;SDS011;54672;46.096;14.470;2023-08-21T09:21:58;16.35;;;11.75;;
67867;SDS011;54672;46.096;14.470;2023-08-21T09:24:24;14.45;;;12.05;;
67867;SDS011;54672;46.096;14.470;2023-08-21T09:26:50;19.08;;;12.13;;
67867;SDS011;54672;46.096;14.470;2023-08-21T09:29:15;14.85;;;12.07;;
67867;SDS011;54672;46.096;14.470;2023-08-21T09:31:41;15.80;;;10.90;;
67867;SDS011;54672;46.096;14.470;2023-08-21T09:34:10;14.95;;;12.20;;
67867;SDS011;54672;46.096;14.470;2023-08-21T09:36:36;17.90;;;12.05;;
67867;SDS011;54672;46.096;14.470;2023-08-21T09:39:04;13.63;;;11.23;;
67867;SDS011;54672;46.096;14.470;2023-08-21T09:41:31;13.13;;;11.20;;
67867;SDS011;54672;46.096;14.470;2023-08-21T09:44:00;16.60;;;11.63;;
67867;SDS011;54672;46.096;14.470;2023-08-21T09:46:26;13.32;;;10.95;;
67867;SDS011;54672;46.096;14.470;2023-08-21T09:48:53;14.13;;;11.63;;
67867;SDS011;54672;46.096;14.470;2023-08-21T09:51:19;16.88;;;11.30;;
67867;SDS011;54672;46.096;14.470;2023-08-21T09:53:45;15.00;;;11.00;;
67867;SDS011;54672;46.096;14.470;2023-08-21T09:56:17;13.85;;;11.57;;
67867;SDS011;54672;46.096;14.470;2023-08-21T09:58:43;14.85;;;10.88;;
67867;SDS011;54672;46.096;14.470;2023-08-21T10:01:08;13.15;;;11.27;;
67867;SDS011;54672;46.096;14.470;2023-08-21T10:03:42;13.38;;;10.65;;
67867;SDS011;54672;46.096;14.470;2023-08-21T10:06:12;14.73;;;10.75;;
67867;SDS011;54672;46.096;14.470;2023-08-21T10:08:46;12.90;;;11.00;;
67867;SDS011;54672;46.096;14.470;2023-08-21T10:11:13;13.60;;;10.73;;
67867;SDS011;54672;46.096;14.470;2023-08-21T10:13:42;16.33;;;11.02;;
67867;SDS011;54672;46.096;14.470;2023-08-21T10:16:07;13.07;;;10.52;;
67867;SDS011;54672;46.096;14.470;2023-08-21T10:18:34;12.80;;;10.32;;
67867;SDS011;54672;46.096;14.470;2023-08-21T10:21:13;14.15;;;11.02;;
67867;SDS011;54672;46.096;14.470;2023-08-21T10:23:40;11.50;;;10.18;;
67867;SDS011;54672;46.096;14.470;2023-08-21T10:26:06;18.50;;;11.20;;
67867;SDS011;54672;46.096;14.470;2023-08-21T10:28:43;16.55;;;10.30;;
67867;SDS011;54672;46.096;14.470;2023-08-21T10:34:04;14.20;;;10.10;;
67867;SDS011;54672;46.096;14.470;2023-08-21T10:39:18;16.10;;;10.80;;
67867;SDS011;54672;46.096;14.470;2023-08-21T10:41:55;12.93;;;10.13;;
67867;SDS011;54672;46.096;14.470;2023-08-21T10:49:55;12.35;;;10.40;;
67867;SDS011;54672;46.096;14.470;2023-08-21T10:52:34;12.35;;;10.27;;
67867;SDS011;54672;46.096;14.470;2023-08-21T10:55:00;15.15;;;10.50;;
67867;SDS011;54672;46.096;14.470;2023-08-21T10:57:29;15.07;;;10.52;;
67867;SDS011;54672;46.096;14.470;2023-08-21T11:00:00;13.93;;;10.65;;
67867;SDS011;54672;46.096;14.470;2023-08-21T11:02:29;16.88;;;10.95;;
67867;SDS011;54672;46.096;14.470;2023-08-21T11:04:55;13.73;;;9.82;;
67867;SDS011;54672;46.096;14.470;2023-08-21T11:07:21;11.63;;;10.43;;
67867;SDS011;54672;46.096;14.470;2023-08-21T11:09:50;12.57;;;10.20;;
67867;SDS011;54672;46.096;14.470;2023-08-21T11:12:17;10.70;;;9.50;;
67867;SDS011;54672;46.096;14.470;2023-08-21T11:14:44;11.63;;;10.27;;
67867;SDS011;54672;46.096;14.470;2023-08-21T11:17:10;11.73;;;9.73;;
67867;SDS011;54672;46.096;14.470;2023-08-21T11:19:36;12.32;;;9.05;;
67867;SDS011;54672;46.096;14.470;2023-08-21T11:22:03;13.27;;;8.85;;
67867;SDS011;54672;46.096;14.470;2023-08-21T11:24:51;10.75;;;8.23;;
67867;SDS011;54672;46.096;14.470;2023-08-21T11:27:19;12.02;;;8.60;;
67867;SDS011;54672;46.096;14.470;2023-08-21T11:29:45;12.07;;;9.13;;
67867;SDS011;54672;46.096;14.470;2023-08-21T11:32:13;11.85;;;9.65;;
67867;SDS011;54672;46.096;14.470;2023-08-21T11:34:47;11.32;;;8.48;;
67867;SDS011;54672;46.096;14.470;2023-08-21T11:37:20;8.68;;;7.20;;
67867;SDS011;54672;46.096;14.470;2023-08-21T11:39:48;9.32;;;7.43;;
67867;SDS011;54672;46.096;14.470;2023-08-21T11:42:30;9.30;;;8.32;;
67867;SDS011;54672;46.096;14.470;2023-08-21T11:44:58;9.65;;;7.57;;
67867;SDS011;54672;46.096;14.470;2023-08-21T11:47:29;12.13;;;8.13;;
67867;SDS011;54672;46.096;14.470;2023-08-21T11:49:56;12.77;;;8.68;;
67867;SDS011;54672;46.096;14.470;2023-08-21T11:52:22;10.48;;;8.95;;
67867;SDS011;54672;46.096;14.470;2023-08-21T11:54:51;10.82;;;8.15;;
67867;SDS011;54672;46.096;14.470;2023-08-21T11:57:18;10.48;;;8.73;;
67867;SDS011;54672;46.096;14.470;2023-08-21T11:59:51;10.70;;;8.27;;
67867;SDS011;54672;46.096;14.470;2023-08-21T12:02:18;10.63;;;8.60;;
67867;SDS011;54672;46.096;14.470;2023-08-21T12:04:44;11.27;;;8.43;;
67867;SDS011;54672;46.096;14.470;2023-08-21T12:07:10;9.25;;;7.78;;
67867;SDS011;54672;46.096;14.470;2023-08-21T12:09:38;8.57;;;6.93;;
67867;SDS011;54672;46.096;14.470;2023-08-21T12:12:03;9.00;;;7.07;;
67867;SDS011;54672;46.096;14.470;2023-08-21T12:14:29;8.65;;;7.63;;
67867;SDS011;54672;46.096;14.470;2023-08-21T12:16:55;8.52;;;7.32;;
67867;SDS011;54672;46.096;14.470;2023-08-21T12:19:23;11.35;;;7.53;;
67867;SDS011;54672;46.096;14.470;2023-08-21T12:21:49;8.57;;;6.50;;
67867;SDS011;54672;46.096;14.470;2023-08-21T12:24:15;8.52;;;7.07;;
67867;SDS011;54672;46.096;14.470;2023-08-21T12:26:41;8.98;;;7.50;;
67867;SDS011;54672;46.096;14.470;2023-08-21T12:29:06;9.40;;;7.25;;
67867;SDS011;54672;46.096;14.470;2023-08-21T12:31:32;8.23;;;7.00;;
67867;SDS011;54672;46.096;14.470;2023-08-21T12:33:57;9.13;;;6.95;;
67867;SDS011;54672;46.096;14.470;2023-08-21T12:36:23;10.65;;;7.53;;
67867;SDS011;54672;46.096;14.470;2023-08-21T12:38:48;10.00;;;7.80;;
67867;SDS011;54672;46.096;14.470;2023-08-21T12:41:14;10.60;;;7.47;;
67867;SDS011;54672;46.096;14.470;2023-08-21T12:43:39;10.15;;;7.05;;
67867;SDS011;54672;46.096;14.470;2023-08-21T12:46:05;8.20;;;6.70;;
67867;SDS011;54672;46.096;14.470;2023-08-21T12:48:30;8.48;;;6.53;;
67867;SDS011;54672;46.096;14.470;2023-08-21T12:50:56;9.32;;;7.35;;
67867;SDS011;54672;46.096;14.470;2023-08-21T12:53:21;9.10;;;6.57;;
67867;SDS011;54672;46.096;14.470;2023-08-21T12:55:47;7.95;;;6.60;;
67867;SDS011;54672;46.096;14.470;2023-08-21T12:58:13;12.35;;;6.80;;
67867;SDS011;54672;46.096;14.470;2023-08-21T13:00:39;8.23;;;6.68;;
67867;SDS011;54672;46.096;14.470;2023-08-21T13:03:04;8.05;;;6.72;;
67867;SDS011;54672;46.096;14.470;2023-08-21T13:05:30;8.77;;;6.45;;
67867;SDS011;54672;46.096;14.470;2023-08-21T13:07:55;7.47;;;6.38;;
67867;SDS011;54672;46.096;14.470;2023-08-21T13:10:21;7.72;;;6.60;;
67867;SDS011;54672;46.096;14.470;2023-08-21T13:12:47;8.50;;;6.57;;
67867;SDS011;54672;46.096;14.470;2023-08-21T13:15:12;7.50;;;6.00;;
67867;SDS011;54672;46.096;14.470;2023-08-21T13:17:37;9.48;;;6.63;;
67867;SDS011;54672;46.096;14.470;2023-08-21T13:20:03;11.90;;;7.03;;
67867;SDS011;54672;46.096;14.470;2023-08-21T13:22:43;8.05;;;6.53;;
67867;SDS011;54672;46.096;14.470;2023-08-21T13:25:10;8.32;;;6.78;;
67867;SDS011;54672;46.096;14.470;2023-08-21T13:27:35;8.95;;;6.50;;
67867;SDS011;54672;46.096;14.470;2023-08-21T13:30:01;13.45;;;7.38;;
67867;SDS011;54672;46.096;14.470;2023-08-21T13:32:26;9.73;;;6.95;;
67867;SDS011;54672;46.096;14.470;2023-08-21T13:34:52;8.93;;;6.88;;
67867;SDS011;54672;46.096;14.470;2023-08-21T13:37:17;10.55;;;7.55;;
67867;SDS011;54672;46.096;14.470;2023-08-21T13:39:42;9.73;;;7.03;;
67867;SDS011;54672;46.096;14.470;2023-08-21T13:42:08;8.10;;;7.03;;
67867;SDS011;54672;46.096;14.470;2023-08-21T13:44:33;7.82;;;6.90;;
67867;SDS011;54672;46.096;14.470;2023-08-21T13:46:59;10.40;;;6.63;;
67867;SDS011;54672;46.096;14.470;2023-08-21T13:49:24;9.77;;;7.00;;
67867;SDS011;54672;46.096;14.470;2023-08-21T13:51:50;8.50;;;6.88;;
67867;SDS011;54672;46.096;14.470;2023-08-21T13:54:15;9.18;;;6.80;;
67867;SDS011;54672;46.096;14.470;2023-08-21T13:56:41;9.93;;;6.50;;
67867;SDS011;54672;46.096;14.470;2023-08-21T13:59:06;8.27;;;7.10;;
67867;SDS011;54672;46.096;14.470;2023-08-21T14:01:32;9.82;;;6.60;;
67867;SDS011;54672;46.096;14.470;2023-08-21T14:03:57;7.90;;;7.10;;
67867;SDS011;54672;46.096;14.470;2023-08-21T14:06:23;9.70;;;6.82;;
67867;SDS011;54672;46.096;14.470;2023-08-21T14:08:49;8.13;;;6.55;;
67867;SDS011;54672;46.096;14.470;2023-08-21T14:11:14;8.70;;;6.82;;
67867;SDS011;54672;46.096;14.470;2023-08-21T14:13:40;8.18;;;7.35;;
67867;SDS011;54672;46.096;14.470;2023-08-21T14:16:05;8.38;;;7.20;;
67867;SDS011;54672;46.096;14.470;2023-08-21T14:18:31;10.55;;;7.15;;
67867;SDS011;54672;46.096;14.470;2023-08-21T14:20:57;8.57;;;7.03;;
67867;SDS011;54672;46.096;14.470;2023-08-21T14:23:22;10.48;;;6.45;;
67867;SDS011;54672;46.096;14.470;2023-08-21T14:25:47;6.97;;;6.28;;